sensor_id;sensor_type;location;lat;lon;timestamp;pressure;altitude;pressure_sealevel;temperature;humidity
21779;BME280;11050;52.222;20.916;2023-06-10T00:01:45;100094.19;;;21.28;80.53
21779;BME280;11050;52.222;20.916;2023-06-10T00:04:14;100091.72;;;21.27;80.29
21779;BME280;11050;52.222;20.916;2023-06-10T00:06:41;100095.50;;;21.22;80.22
21779;BME280;11050;52.222;20.916;2023-06-10T00:09:07;100096.97;;;21.20;80.21
21779;BME280;11050;52.222;20.916;2023-06-10T00:11:40;100093.19;;;21.16;80.79
21779;BME280;11050;52.222;20.916;2023-06-10T00:14:07;100091.06;;;21.13;80.27
21779;BME280;11050;52.222;20.916;2023-06-10T00:16:33;100092.84;;;21.09;79.82
21779;BME280;11050;52.222;20.916;2023-06-10T00:19:03;100091.88;;;21.05;79.82
21779;BME280;11050;52.222;20.916;2023-06-10T00:21:34;100083.47;;;20.96;78.76
21779;BME280;11050;52.222;20.916;2023-06-10T00:24:11;100088.06;;;20.92;77.89
21779;BME280;11050;52.222;20.916;2023-06-10T00:26:38;100091.81;;;20.88;76.66
21779;BME280;11050;52.222;20.916;2023-06-10T00:29:05;100091.31;;;20.77;74.85
21779;BME280;11050;52.222;20.916;2023-06-10T00:31:30;100089.34;;;20.69;72.11
21779;BME280;11050;52.222;20.916;2023-06-10T00:33:56;100089.34;;;20.60;69.64
21779;BME280;11050;52.222;20.916;2023-06-10T00:36:22;100094.53;;;20.53;67.56
21779;BME280;11050;52.222;20.916;2023-06-10T00:38:48;100095.03;;;20.47;66.69
21779;BME280;11050;52.222;20.916;2023-06-10T00:41:14;100089.13;;;20.40;66.32
21779;BME280;11050;52.222;20.916;2023-06-10T00:43:39;100090.75;;;20.32;65.85
21779;BME280;11050;52.222;20.916;2023-06-10T00:46:05;100084.78;;;20.25;65.00
21779;BME280;11050;52.222;20.916;2023-06-10T00:48:32;100079.47;;;20.15;64.33
21779;BME280;11050;52.222;20.916;2023-06-10T00:50:59;100083.06;;;20.07;62.49
21779;BME280;11050;52.222;20.916;2023-06-10T00:53:27;100075.09;;;19.92;60.98
21779;BME280;11050;52.222;20.916;2023-06-10T00:55:53;100092.16;;;19.91;60.44
21779;BME280;11050;52.222;20.916;2023-06-10T00:58:19;100090.66;;;19.84;59.85
21779;BME280;11050;52.222;20.916;2023-06-10T01:00:45;100099.47;;;19.78;59.23
21779;BME280;11050;52.222;20.916;2023-06-10T01:03:11;100100.25;;;19.70;59.62
21779;BME280;11050;52.222;20.916;2023-06-10T01:05:38;100112.03;;;19.67;59.01
21779;BME280;11050;52.222;20.916;2023-06-10T01:08:13;100109.72;;;19.60;58.63
21779;BME280;11050;52.222;20.916;2023-06-10T01:10:50;100100.16;;;19.53;57.62
21779;BME280;11050;52.222;20.916;2023-06-10T01:13:18;100108.09;;;19.46;58.04
21779;BME280;11050;52.222;20.916;2023-06-10T01:15:44;100103.81;;;19.40;57.40
21779;BME280;11050;52.222;20.916;2023-06-10T01:18:10;100107.88;;;19.34;56.83
21779;BME280;11050;52.222;20.916;2023-06-10T01:20:41;100111.25;;;19.31;56.51
21779;BME280;11050;52.222;20.916;2023-06-10T01:23:10;100101.38;;;19.25;56.30
21779;BME280;11050;52.222;20.916;2023-06-10T01:26:07;100107.56;;;19.22;56.28
21779;BME280;11050;52.222;20.916;2023-06-10T01:28:54;100110.50;;;19.17;56.61
21779;BME280;11050;52.222;20.916;2023-06-10T01:31:41;100119.78;;;19.12;56.40
21779;BME280;11050;52.222;20.916;2023-06-10T01:34:13;100118.75;;;19.08;55.89
21779;BME280;11050;52.222;20.916;2023-06-10T01:36:41;100109.19;;;19.01;55.38
21779;BME280;11050;52.222;20.916;2023-06-10T01:39:10;100120.31;;;19.01;55.92
21779;BME280;11050;52.222;20.916;2023-06-10T01:41:38;100114.28;;;18.99;55.57
21779;BME280;11050;52.222;20.916;2023-06-10T01:44:05;100120.47;;;18.96;55.54
21779;BME280;11050;52.222;20.916;2023-06-10T01:46:30;100126.66;;;18.92;55.95
21779;BME280;11050;52.222;20.916;2023-06-10T01:48:56;100123.69;;;18.89;55.83
21779;BME280;11050;52.222;20.916;2023-06-10T01:51:22;100131.81;;;18.85;56.02
21779;BME280;11050;52.222;20.916;2023-06-10T01:53:48;100130.50;;;18.83;56.62
21779;BME280;11050;52.222;20.916;2023-06-10T01:56:13;100134.72;;;18.80;56.62
21779;BME280;11050;52.222;20.916;2023-06-10T01:58:43;100130.59;;;18.78;56.07
21779;BME280;11050;52.222;20.916;2023-06-10T02:01:11;100137.81;;;18.79;56.74
21779;BME280;11050;52.222;20.916;2023-06-10T02:03:36;100133.38;;;18.78;56.54
21779;BME280;11050;52.222;20.916;2023-06-10T02:06:03;100130.41;;;18.74;56.37
21779;BME280;11050;52.222;20.916;2023-06-10T02:08:28;100131.53;;;18.73;56.94
21779;BME280;11050;52.222;20.916;2023-06-10T02:10:54;100136.59;;;18.71;57.75
21779;BME280;11050;52.222;20.916;2023-06-10T02:13:20;100143.59;;;18.69;57.66
21779;BME280;11050;52.222;20.916;2023-06-10T02:15:45;100138.47;;;18.62;58.00
21779;BME280;11050;52.222;20.916;2023-06-10T02:18:11;100130.63;;;18.64;57.75
21779;BME280;11050;52.222;20.916;2023-06-10T02:20:40;100140.31;;;18.67;57.54
21779;BME280;11050;52.222;20.916;2023-06-10T02:23:06;100137.84;;;18.65;58.31
21779;BME280;11050;52.222;20.916;2023-06-10T02:25:31;100137.00;;;18.65;58.01
21779;BME280;11050;52.222;20.916;2023-06-10T02:27:57;100131.03;;;18.58;58.74
21779;BME280;11050;52.222;20.916;2023-06-10T02:30:23;100149.41;;;18.59;58.38
21779;BME280;11050;52.222;20.916;2023-06-10T02:32:48;100150.22;;;18.59;59.23
21779;BME280;11050;52.222;20.916;2023-06-10T02:35:17;100138.28;;;18.59;58.91
21779;BME280;11050;52.222;20.916;2023-06-10T02:37:43;100152.78;;;18.56;59.66
21779;BME280;11050;52.222;20.916;2023-06-10T02:40:10;100159.81;;;18.53;59.65
21779;BME280;11050;52.222;20.916;2023-06-10T02:42:36;100148.59;;;18.45;60.34
21779;BME280;11050;52.222;20.916;2023-06-10T02:45:02;100156.81;;;18.50;60.02
21779;BME280;11050;52.222;20.916;2023-06-10T02:47:28;100162.19;;;18.46;60.99
21779;BME280;11050;52.222;20.916;2023-06-10T02:49:54;100163.00;;;18.47;60.95
21779;BME280;11050;52.222;20.916;2023-06-10T02:52:20;100166.44;;;18.44;61.33
21779;BME280;11050;52.222;20.916;2023-06-10T02:54:46;100160.09;;;18.38;61.60
21779;BME280;11050;52.222;20.916;2023-06-10T02:57:11;100165.59;;;18.43;61.20
21779;BME280;11050;52.222;20.916;2023-06-10T02:59:37;100165.28;;;18.45;61.72
21779;BME280;11050;52.222;20.916;2023-06-10T03:02:03;100171.16;;;18.43;61.78
21779;BME280;11050;52.222;20.916;2023-06-10T03:04:29;100161.97;;;18.43;61.63
21779;BME280;11050;52.222;20.916;2023-06-10T03:06:56;100164.97;;;18.46;61.50
21779;BME280;11050;52.222;20.916;2023-06-10T03:09:22;100162.19;;;18.46;62.13
21779;BME280;11050;52.222;20.916;2023-06-10T03:11:47;100173.00;;;18.48;62.06
21779;BME280;11050;52.222;20.916;2023-06-10T03:14:13;100172.41;;;18.51;62.56
21779;BME280;11050;52.222;20.916;2023-06-10T03:16:39;100167.34;;;18.53;61.98
21779;BME280;11050;52.222;20.916;2023-06-10T03:19:08;100170.97;;;18.53;62.05
21779;BME280;11050;52.222;20.916;2023-06-10T03:21:37;100171.44;;;18.55;62.93
21779;BME280;11050;52.222;20.916;2023-06-10T03:24:03;100174.75;;;18.57;62.78
21779;BME280;11050;52.222;20.916;2023-06-10T03:26:29;100178.25;;;18.63;61.79
21779;BME280;11050;52.222;20.916;2023-06-10T03:28:55;100167.34;;;18.66;62.47
21779;BME280;11050;52.222;20.916;2023-06-10T03:31:20;100177.34;;;18.67;62.23
21779;BME280;11050;52.222;20.916;2023-06-10T03:33:46;100179.81;;;18.69;62.58
21779;BME280;11050;52.222;20.916;2023-06-10T03:36:12;100186.41;;;18.73;63.40
21779;BME280;11050;52.222;20.916;2023-06-10T03:38:38;100186.28;;;18.78;62.76
21779;BME280;11050;52.222;20.916;2023-06-10T03:41:03;100182.25;;;18.84;62.16
21779;BME280;11050;52.222;20.916;2023-06-10T03:43:29;100182.16;;;18.89;62.52
21779;BME280;11050;52.222;20.916;2023-06-10T03:45:56;100184.00;;;18.93;63.32
21779;BME280;11050;52.222;20.916;2023-06-10T03:48:22;100197.84;;;18.99;62.35
21779;BME280;11050;52.222;20.916;2023-06-10T03:50:47;100190.47;;;19.03;61.69
21779;BME280;11050;52.222;20.916;2023-06-10T03:53:16;100195.13;;;19.07;62.21
21779;BME280;11050;52.222;20.916;2023-06-10T03:55:42;100189.94;;;19.14;62.61
21779;BME280;11050;52.222;20.916;2023-06-10T03:58:08;100208.19;;;19.20;62.33
21779;BME280;11050;52.222;20.916;2023-06-10T04:00:33;100204.50;;;19.25;61.58
21779;BME280;11050;52.222;20.916;2023-06-10T04:03:10;100190.09;;;19.31;61.00
21779;BME280;11050;52.222;20.916;2023-06-10T04:05:40;100200.53;;;19.39;61.72
21779;BME280;11050;52.222;20.916;2023-06-10T04:08:07;100207.66;;;19.45;61.61
21779;BME280;11050;52.222;20.916;2023-06-10T04:10:33;100204.41;;;19.52;61.21
21779;BME280;11050;52.222;20.916;2023-06-10T04:12:58;100212.69;;;19.57;60.82
21779;BME280;11050;52.222;20.916;2023-06-10T04:15:25;100210.88;;;19.61;60.86
21779;BME280;11050;52.222;20.916;2023-06-10T04:17:51;100191.81;;;19.54;61.44
21779;BME280;11050;52.222;20.916;2023-06-10T04:20:16;100211.28;;;19.68;60.93
21779;BME280;11050;52.222;20.916;2023-06-10T04:22:42;100202.28;;;19.71;61.15
21779;BME280;11050;52.222;20.916;2023-06-10T04:25:09;100195.34;;;19.68;61.13
21779;BME280;11050;52.222;20.916;2023-06-10T04:27:35;100208.88;;;19.75;60.93
21779;BME280;11050;52.222;20.916;2023-06-10T04:30:03;100204.81;;;19.81;61.04
21779;BME280;11050;52.222;20.916;2023-06-10T04:32:29;100208.31;;;19.87;59.94
21779;BME280;11050;52.222;20.916;2023-06-10T04:34:55;100207.53;;;19.95;59.94
21779;BME280;11050;52.222;20.916;2023-06-10T04:37:21;100209.38;;;19.99;60.17
21779;BME280;11050;52.222;20.916;2023-06-10T04:39:47;100208.25;;;20.00;59.89
21779;BME280;11050;52.222;20.916;2023-06-10T04:42:13;100209.25;;;20.04;59.95
21779;BME280;11050;52.222;20.916;2023-06-10T04:44:38;100210.75;;;20.10;59.62
21779;BME280;11050;52.222;20.916;2023-06-10T04:47:04;100219.00;;;20.15;59.32
21779;BME280;11050;52.222;20.916;2023-06-10T04:49:30;100223.13;;;20.18;59.63
21779;BME280;11050;52.222;20.916;2023-06-10T04:51:56;100220.53;;;20.21;60.09
21779;BME280;11050;52.222;20.916;2023-06-10T04:54:22;100220.09;;;20.28;59.54
21779;BME280;11050;52.222;20.916;2023-06-10T04:56:47;100222.91;;;20.36;58.87
21779;BME280;11050;52.222;20.916;2023-06-10T04:59:13;100231.28;;;20.36;59.05
21779;BME280;11050;52.222;20.916;2023-06-10T05:01:40;100230.50;;;20.44;59.27
21779;BME280;11050;52.222;20.916;2023-06-10T05:04:05;100229.91;;;20.56;58.51
21779;BME280;11050;52.222;20.916;2023-06-10T05:06:31;100229.63;;;20.66;58.44
21779;BME280;11050;52.222;20.916;2023-06-10T05:08:57;100231.16;;;20.72;58.38
21779;BME280;11050;52.222;20.916;2023-06-10T05:11:22;100234.78;;;20.81;58.34
21779;BME280;11050;52.222;20.916;2023-06-10T05:13:48;100232.00;;;20.81;58.24
21779;BME280;11050;52.222;20.916;2023-06-10T05:16:14;100231.50;;;20.79;57.80
21779;BME280;11050;52.222;20.916;2023-06-10T05:18:40;100229.03;;;20.77;58.30
21779;BME280;11050;52.222;20.916;2023-06-10T05:21:06;100231.16;;;20.81;57.90
21779;BME280;11050;52.222;20.916;2023-06-10T05:23:32;100234.13;;;20.84;57.77
21779;BME280;11050;52.222;20.916;2023-06-10T05:25:58;100237.59;;;20.90;58.00
21779;BME280;11050;52.222;20.916;2023-06-10T05:28:25;100234.19;;;20.93;57.66
21779;BME280;11050;52.222;20.916;2023-06-10T05:30:51;100239.28;;;20.99;57.38
21779;BME280;11050;52.222;20.916;2023-06-10T05:33:17;100237.19;;;21.05;57.40
21779;BME280;11050;52.222;20.916;2023-06-10T05:35:42;100234.06;;;21.06;57.16
21779;BME280;11050;52.222;20.916;2023-06-10T05:38:08;100228.66;;;21.10;57.58
21779;BME280;11050;52.222;20.916;2023-06-10T05:40:34;100232.44;;;21.14;57.07
21779;BME280;11050;52.222;20.916;2023-06-10T05:42:59;100231.81;;;21.17;57.19
21779;BME280;11050;52.222;20.916;2023-06-10T05:45:27;100234.44;;;21.22;57.24
21779;BME280;11050;52.222;20.916;2023-06-10T05:47:52;100222.13;;;21.23;57.12
21779;BME280;11050;52.222;20.916;2023-06-10T05:50:18;100233.28;;;21.31;56.80
21779;BME280;11050;52.222;20.916;2023-06-10T05:52:44;100237.41;;;21.42;56.25
21779;BME280;11050;52.222;20.916;2023-06-10T05:55:10;100235.66;;;21.55;55.84
21779;BME280;11050;52.222;20.916;2023-06-10T05:57:35;100242.56;;;21.66;55.72
21779;BME280;11050;52.222;20.916;2023-06-10T06:00:01;100249.31;;;21.74;54.99
21779;BME280;11050;52.222;20.916;2023-06-10T06:02:27;100258.03;;;21.81;54.20
21779;BME280;11050;52.222;20.916;2023-06-10T06:04:53;100250.63;;;21.93;54.70
21779;BME280;11050;52.222;20.916;2023-06-10T06:07:18;100249.97;;;22.05;54.68
21779;BME280;11050;52.222;20.916;2023-06-10T06:09:47;100255.88;;;22.20;54.49
21779;BME280;11050;52.222;20.916;2023-06-10T06:12:12;100249.25;;;22.33;54.11
21779;BME280;11050;52.222;20.916;2023-06-10T06:14:38;100250.69;;;22.48;53.17
21779;BME280;11050;52.222;20.916;2023-06-10T06:17:07;100254.81;;;22.59;53.19
21779;BME280;11050;52.222;20.916;2023-06-10T06:19:33;100252.47;;;22.70;52.60
21779;BME280;11050;52.222;20.916;2023-06-10T06:21:59;100248.66;;;22.74;52.50
21779;BME280;11050;52.222;20.916;2023-06-10T06:24:25;100254.09;;;22.79;53.09
21779;BME280;11050;52.222;20.916;2023-06-10T06:26:50;100246.47;;;22.88;52.79
21779;BME280;11050;52.222;20.916;2023-06-10T06:29:16;100239.84;;;22.93;51.98
21779;BME280;11050;52.222;20.916;2023-06-10T06:31:42;100255.75;;;23.09;52.12
21779;BME280;11050;52.222;20.916;2023-06-10T06:34:07;100251.25;;;23.17;51.94
21779;BME280;11050;52.222;20.916;2023-06-10T06:36:33;100247.56;;;23.25;51.72
21779;BME280;11050;52.222;20.916;2023-06-10T06:38:59;100250.22;;;23.30;51.26
21779;BME280;11050;52.222;20.916;2023-06-10T06:41:27;100253.25;;;23.45;50.61
21779;BME280;11050;52.222;20.916;2023-06-10T06:43:54;100257.09;;;23.62;49.92
21779;BME280;11050;52.222;20.916;2023-06-10T06:46:20;100258.19;;;23.69;49.69
21779;BME280;11050;52.222;20.916;2023-06-10T06:48:46;100262.78;;;23.74;49.46
21779;BME280;11050;52.222;20.916;2023-06-10T06:51:12;100262.81;;;23.86;49.22
21779;BME280;11050;52.222;20.916;2023-06-10T06:53:39;100258.66;;;23.92;48.83
21779;BME280;11050;52.222;20.916;2023-06-10T06:56:10;100269.66;;;23.97;47.67
21779;BME280;11050;52.222;20.916;2023-06-10T06:58:36;100270.91;;;24.08;48.62
21779;BME280;11050;52.222;20.916;2023-06-10T07:01:02;100264.63;;;24.11;47.56
21779;BME280;11050;52.222;20.916;2023-06-10T07:03:28;100271.81;;;24.20;47.76
21779;BME280;11050;52.222;20.916;2023-06-10T07:05:54;100271.44;;;24.22;47.72
21779;BME280;11050;52.222;20.916;2023-06-10T07:08:19;100272.41;;;24.26;47.53
21779;BME280;11050;52.222;20.916;2023-06-10T07:10:45;100270.81;;;24.37;48.34
21779;BME280;11050;52.222;20.916;2023-06-10T07:13:11;100270.56;;;24.42;48.20
21779;BME280;11050;52.222;20.916;2023-06-10T07:15:38;100274.22;;;24.42;47.16
21779;BME280;11050;52.222;20.916;2023-06-10T07:18:04;100269.50;;;24.34;47.04
21779;BME280;11050;52.222;20.916;2023-06-10T07:20:29;100283.00;;;24.41;47.38
21779;BME280;11050;52.222;20.916;2023-06-10T07:22:55;100276.72;;;24.56;47.53
21779;BME280;11050;52.222;20.916;2023-06-10T07:25:21;100278.19;;;24.74;47.18
21779;BME280;11050;52.222;20.916;2023-06-10T07:27:47;100284.44;;;24.92;47.55
21779;BME280;11050;52.222;20.916;2023-06-10T07:30:13;100286.53;;;25.07;46.54
21779;BME280;11050;52.222;20.916;2023-06-10T07:32:39;100274.47;;;25.18;46.09
21779;BME280;11050;52.222;20.916;2023-06-10T07:35:09;100280.22;;;25.22;44.95
21779;BME280;11050;52.222;20.916;2023-06-10T07:37:38;100289.38;;;25.19;46.31
21779;BME280;11050;52.222;20.916;2023-06-10T07:40:04;100293.34;;;25.18;46.02
21779;BME280;11050;52.222;20.916;2023-06-10T07:42:34;100280.56;;;25.20;45.40
21779;BME280;11050;52.222;20.916;2023-06-10T07:45:00;100295.81;;;25.19;45.07
21779;BME280;11050;52.222;20.916;2023-06-10T07:47:25;100298.16;;;25.05;45.53
21779;BME280;11050;52.222;20.916;2023-06-10T07:49:51;100300.00;;;24.89;46.35
21779;BME280;11050;52.222;20.916;2023-06-10T07:52:17;100302.44;;;24.91;45.09
21779;BME280;11050;52.222;20.916;2023-06-10T07:54:43;100294.97;;;24.95;45.35
21779;BME280;11050;52.222;20.916;2023-06-10T07:57:08;100300.59;;;25.07;43.70
21779;BME280;11050;52.222;20.916;2023-06-10T07:59:34;100305.06;;;25.08;44.03
21779;BME280;11050;52.222;20.916;2023-06-10T08:02:00;100307.16;;;25.23;44.32
21779;BME280;11050;52.222;20.916;2023-06-10T08:04:25;100300.63;;;25.55;44.78
21779;BME280;11050;52.222;20.916;2023-06-10T08:06:51;100301.38;;;25.92;42.98
21779;BME280;11050;52.222;20.916;2023-06-10T08:09:16;100301.22;;;26.12;44.36
21779;BME280;11050;52.222;20.916;2023-06-10T08:11:45;100298.16;;;26.17;43.35
21779;BME280;11050;52.222;20.916;2023-06-10T08:14:11;100297.53;;;26.24;42.34
21779;BME280;11050;52.222;20.916;2023-06-10T08:16:37;100301.53;;;26.23;42.18
21779;BME280;11050;52.222;20.916;2023-06-10T08:19:03;100302.34;;;26.23;41.87
21779;BME280;11050;52.222;20.916;2023-06-10T08:21:28;100288.91;;;26.33;41.95
21779;BME280;11050;52.222;20.916;2023-06-10T08:23:54;100312.09;;;26.54;42.86
21779;BME280;11050;52.222;20.916;2023-06-10T08:26:20;100299.91;;;26.65;42.08
21779;BME280;11050;52.222;20.916;2023-06-10T08:28:46;100312.72;;;26.90;40.76
21779;BME280;11050;52.222;20.916;2023-06-10T08:31:11;100307.91;;;27.06;38.88
21779;BME280;11050;52.222;20.916;2023-06-10T08:33:37;100299.53;;;27.10;39.62
21779;BME280;11050;52.222;20.916;2023-06-10T08:36:03;100305.63;;;27.28;37.84
21779;BME280;11050;52.222;20.916;2023-06-10T08:38:28;100307.94;;;27.38;38.65
21779;BME280;11050;52.222;20.916;2023-06-10T08:40:59;100303.06;;;27.54;38.32
21779;BME280;11050;52.222;20.916;2023-06-10T08:43:39;100296.88;;;27.48;37.35
21779;BME280;11050;52.222;20.916;2023-06-10T08:46:09;100316.19;;;27.46;37.41
21779;BME280;11050;52.222;20.916;2023-06-10T08:48:42;100310.25;;;27.51;36.34
21779;BME280;11050;52.222;20.916;2023-06-10T08:51:10;100307.81;;;27.50;35.25
21779;BME280;11050;52.222;20.916;2023-06-10T08:53:48;100308.72;;;27.38;36.76
21779;BME280;11050;52.222;20.916;2023-06-10T08:56:17;100318.69;;;27.32;38.22
21779;BME280;11050;52.222;20.916;2023-06-10T08:58:44;100310.72;;;27.22;38.90
21779;BME280;11050;52.222;20.916;2023-06-10T09:01:11;100308.00;;;27.26;39.71
21779;BME280;11050;52.222;20.916;2023-06-10T09:03:38;100320.03;;;27.23;38.78
21779;BME280;11050;52.222;20.916;2023-06-10T09:06:05;100312.00;;;27.09;39.38
21779;BME280;11050;52.222;20.916;2023-06-10T09:08:33;100320.38;;;27.21;39.15
21779;BME280;11050;52.222;20.916;2023-06-10T09:11:00;100324.06;;;27.37;38.63
21779;BME280;11050;52.222;20.916;2023-06-10T09:13:26;100322.22;;;27.45;37.76
21779;BME280;11050;52.222;20.916;2023-06-10T09:15:52;100316.03;;;27.39;37.94
21779;BME280;11050;52.222;20.916;2023-06-10T09:18:17;100328.50;;;27.38;38.22
21779;BME280;11050;52.222;20.916;2023-06-10T09:20:44;100333.22;;;27.50;38.48
21779;BME280;11050;52.222;20.916;2023-06-10T09:23:10;100333.50;;;27.60;37.60
21779;BME280;11050;52.222;20.916;2023-06-10T09:25:38;100329.63;;;27.68;37.42
21779;BME280;11050;52.222;20.916;2023-06-10T09:28:12;100333.50;;;27.60;36.67
21779;BME280;11050;52.222;20.916;2023-06-10T09:30:38;100334.81;;;27.82;36.85
21779;BME280;11050;52.222;20.916;2023-06-10T09:33:12;100334.97;;;27.89;35.86
21779;BME280;11050;52.222;20.916;2023-06-10T09:35:46;100342.09;;;27.83;36.35
21779;BME280;11050;52.222;20.916;2023-06-10T09:38:15;100340.97;;;27.87;35.82
21779;BME280;11050;52.222;20.916;2023-06-10T09:40:52;100332.69;;;27.94;35.58
21779;BME280;11050;52.222;20.916;2023-06-10T09:43:19;100346.47;;;27.96;35.47
21779;BME280;11050;52.222;20.916;2023-06-10T09:45:50;100340.72;;;27.92;33.30
21779;BME280;11050;52.222;20.916;2023-06-10T09:48:18;100334.28;;;27.61;32.95
21779;BME280;11050;52.222;20.916;2023-06-10T09:50:45;100327.50;;;27.46;33.84
21779;BME280;11050;52.222;20.916;2023-06-10T09:53:11;100330.22;;;27.58;33.54
21779;BME280;11050;52.222;20.916;2023-06-10T09:55:41;100343.75;;;27.68;33.46
21779;BME280;11050;52.222;20.916;2023-06-10T09:58:07;100342.81;;;27.80;32.15
21779;BME280;11050;52.222;20.916;2023-06-10T10:00:33;100339.72;;;27.85;32.72
21779;BME280;11050;52.222;20.916;2023-06-10T10:03:00;100330.13;;;28.05;31.77
21779;BME280;11050;52.222;20.916;2023-06-10T10:05:27;100338.38;;;28.14;31.88
21779;BME280;11050;52.222;20.916;2023-06-10T10:07:53;100337.66;;;28.36;30.91
21779;BME280;11050;52.222;20.916;2023-06-10T10:10:21;100336.47;;;28.56;29.02
21779;BME280;11050;52.222;20.916;2023-06-10T10:12:48;100339.53;;;28.89;26.81
21779;BME280;11050;52.222;20.916;2023-06-10T10:15:17;100334.22;;;29.07;24.80
21779;BME280;11050;52.222;20.916;2023-06-10T10:18:06;100334.84;;;28.96;23.42
21779;BME280;11050;52.222;20.916;2023-06-10T10:20:35;100331.97;;;28.74;23.20
21779;BME280;11050;52.222;20.916;2023-06-10T10:23:05;100336.69;;;28.66;24.87
21779;BME280;11050;52.222;20.916;2023-06-10T10:25:40;100338.66;;;28.85;24.96
21779;BME280;11050;52.222;20.916;2023-06-10T10:28:12;100327.63;;;28.99;24.82
21779;BME280;11050;52.222;20.916;2023-06-10T10:30:50;100330.28;;;29.11;25.62
21779;BME280;11050;52.222;20.916;2023-06-10T10:33:31;100327.22;;;29.20;26.03
21779;BME280;11050;52.222;20.916;2023-06-10T10:35:59;100327.38;;;29.30;26.24
21779;BME280;11050;52.222;20.916;2023-06-10T10:38:25;100331.84;;;29.54;26.63
21779;BME280;11050;52.222;20.916;2023-06-10T10:40:52;100325.13;;;29.39;25.98
21779;BME280;11050;52.222;20.916;2023-06-10T10:43:18;100322.16;;;29.32;27.04
21779;BME280;11050;52.222;20.916;2023-06-10T10:46:02;100323.81;;;29.33;25.05
21779;BME280;11050;52.222;20.916;2023-06-10T10:48:38;100345.03;;;29.69;25.34
21779;BME280;11050;52.222;20.916;2023-06-10T10:51:05;100321.41;;;30.14;24.76
21779;BME280;11050;52.222;20.916;2023-06-10T10:53:30;100325.25;;;30.58;23.83
21779;BME280;11050;52.222;20.916;2023-06-10T10:56:16;100315.19;;;31.01;22.93
21779;BME280;11050;52.222;20.916;2023-06-10T10:59:05;100316.09;;;31.55;22.46
21779;BME280;11050;52.222;20.916;2023-06-10T11:01:42;100322.59;;;32.10;22.03
21779;BME280;11050;52.222;20.916;2023-06-10T11:04:12;100324.50;;;32.71;22.60
21779;BME280;11050;52.222;20.916;2023-06-10T11:06:38;100327.88;;;33.33;21.11
21779;BME280;11050;52.222;20.916;2023-06-10T11:09:26;100323.78;;;33.83;21.20
21779;BME280;11050;52.222;20.916;2023-06-10T11:11:59;100326.16;;;34.23;19.87
21779;BME280;11050;52.222;20.916;2023-06-10T11:14:29;100326.06;;;34.55;19.56
21779;BME280;11050;52.222;20.916;2023-06-10T11:16:59;100317.41;;;34.73;19.35
21779;BME280;11050;52.222;20.916;2023-06-10T11:19:39;100313.19;;;34.98;19.10
21779;BME280;11050;52.222;20.916;2023-06-10T11:22:07;100316.47;;;35.52;18.85
21779;BME280;11050;52.222;20.916;2023-06-10T11:24:33;100305.88;;;35.89;18.87
21779;BME280;11050;52.222;20.916;2023-06-10T11:27:20;100307.78;;;36.40;18.71
21779;BME280;11050;52.222;20.916;2023-06-10T11:30:19;100314.94;;;36.55;17.09
21779;BME280;11050;52.222;20.916;2023-06-10T11:32:51;100318.25;;;37.11;17.68
21779;BME280;11050;52.222;20.916;2023-06-10T11:35:23;100318.59;;;37.89;17.47
21779;BME280;11050;52.222;20.916;2023-06-10T11:37:49;100316.34;;;38.39;16.88
21779;BME280;11050;52.222;20.916;2023-06-10T11:40:15;100313.06;;;38.96;16.51
21779;BME280;11050;52.222;20.916;2023-06-10T11:42:42;100319.63;;;39.48;16.07
21779;BME280;11050;52.222;20.916;2023-06-10T11:45:08;100309.53;;;39.56;15.23
21779;BME280;11050;52.222;20.916;2023-06-10T11:47:34;100320.16;;;39.75;15.49
21779;BME280;11050;52.222;20.916;2023-06-10T11:50:00;100299.38;;;39.36;14.93
21779;BME280;11050;52.222;20.916;2023-06-10T11:52:30;100301.19;;;39.62;15.00
21779;BME280;11050;52.222;20.916;2023-06-10T11:54:59;100306.91;;;40.51;14.10
21779;BME280;11050;52.222;20.916;2023-06-10T11:57:24;100308.69;;;40.74;14.00
21779;BME280;11050;52.222;20.916;2023-06-10T11:59:50;100306.69;;;41.25;14.47
21779;BME280;11050;52.222;20.916;2023-06-10T12:02:17;100309.03;;;41.77;13.71
21779;BME280;11050;52.222;20.916;2023-06-10T12:04:44;100302.72;;;42.03;13.55
21779;BME280;11050;52.222;20.916;2023-06-10T12:07:20;100300.59;;;42.16;13.31
21779;BME280;11050;52.222;20.916;2023-06-10T12:09:46;100302.88;;;42.43;13.56
21779;BME280;11050;52.222;20.916;2023-06-10T12:12:12;100314.41;;;42.86;13.65
21779;BME280;11050;52.222;20.916;2023-06-10T12:14:57;100310.28;;;42.96;12.08
21779;BME280;11050;52.222;20.916;2023-06-10T12:20:04;100314.72;;;43.19;12.88
21779;BME280;11050;52.222;20.916;2023-06-10T12:22:42;100303.16;;;43.19;12.34
21779;BME280;11050;52.222;20.916;2023-06-10T12:25:09;100307.13;;;43.43;12.53
21779;BME280;11050;52.222;20.916;2023-06-10T12:27:36;100300.72;;;43.57;11.05
21779;BME280;11050;52.222;20.916;2023-06-10T12:30:05;100303.25;;;43.37;11.73
21779;BME280;11050;52.222;20.916;2023-06-10T12:32:45;100285.41;;;43.39;12.11
21779;BME280;11050;52.222;20.916;2023-06-10T12:35:16;100295.03;;;43.36;12.81
21779;BME280;11050;52.222;20.916;2023-06-10T12:37:42;100296.28;;;43.65;12.99
21779;BME280;11050;52.222;20.916;2023-06-10T12:40:09;100281.50;;;43.99;13.30
21779;BME280;11050;52.222;20.916;2023-06-10T12:42:36;100294.22;;;44.29;12.71
21779;BME280;11050;52.222;20.916;2023-06-10T12:45:04;100290.00;;;43.67;13.39
21779;BME280;11050;52.222;20.916;2023-06-10T12:47:37;100281.44;;;42.31;14.11